Time;durP1;ratioP1;P1;durP2;ratioP2;P2;SDS_P1;SDS_P2;PMS_P1;PMS_P2;Temp;Humidity;BMP_temperature;BMP_pressure;BME280_temperature;BME280_humidity;BME280_pressure;Samples;Min_cycle;Max_cycle;Signal;HPM_P1;HPM_P2
2023/04/07 00:01:49;;;;;;;39.10;35.50;;;;;;;0.03;100.00;97772.69;109580;1290;22228;-87
2023/04/07 00:04:17;;;;;;;39.30;35.70;;;;;;;0.03;100.00;97773.89;109576;1290;22156;-87
2023/04/07 00:06:45;;;;;;;33.80;30.70;;;;;;;0.02;100.00;97770.97;109490;1290;22090;-87
2023/04/07 00:09:13;;;;;;;33.50;30.40;;;;;;;0.05;100.00;97767.89;109569;1290;22211;-87
2023/04/07 00:11:42;;;;;;;34.70;31.50;;;;;;;0.06;100.00;97766.64;109799;1290;22197;-87
2023/04/07 00:14:10;;;;;;;37.40;33.80;;;;;;;0.05;100.00;97764.86;109680;1290;22114;-87
2023/04/07 00:17:09;;;;;;;33.90;30.90;;;;;;;0.07;100.00;97761.95;109499;1290;22112;-87
2023/04/07 00:19:37;;;;;;;35.80;32.70;;;;;;;0.08;100.00;97759.63;109415;1290;22978;-86
2023/04/07 00:22:05;;;;;;;38.10;34.90;;;;;;;0.07;100.00;97756.11;109576;1290;22341;-86
2023/04/07 00:24:33;;;;;;;31.20;28.60;;;;;;;0.01;100.00;97754.72;109594;1290;22263;-86
2023/04/07 00:27:02;;;;;;;31.10;28.30;;;;;;;0.02;100.00;97756.08;109621;1290;22273;-86
2023/04/07 00:29:30;;;;;;;30.50;27.90;;;;;;;0.02;100.00;97754.02;109587;1290;22130;-86
2023/04/07 00:31:58;;;;;;;28.80;26.30;;;;;;;0.03;100.00;97753.50;109571;1290;22248;-85
2023/04/07 00:34:26;;;;;;;30.80;28.20;;;;;;;0.07;100.00;97752.61;109567;1290;22811;-85
2023/04/07 00:36:54;;;;;;;29.50;27.00;;;;;;;0.09;100.00;97752.97;109600;1290;22222;-85
2023/04/07 00:39:22;;;;;;;32.90;30.00;;;;;;;0.09;100.00;97749.91;109776;1290;22184;-87
2023/04/07 00:41:51;;;;;;;29.50;26.90;;;;;;;0.04;100.00;97743.33;109710;1290;22222;-85
2023/04/07 00:44:19;;;;;;;30.10;27.60;;;;;;;0.03;100.00;97741.09;109584;1290;22366;-86
2023/04/07 00:46:47;;;;;;;27.90;25.50;;;;;;;0.03;100.00;97740.95;109598;1290;22275;-86
2023/04/07 00:49:18;;;;;;;27.90;25.50;;;;;;;0.03;100.00;97733.58;109575;1290;22174;-86
2023/04/07 00:51:46;;;;;;;28.40;26.10;;;;;;;0.05;100.00;97737.84;109385;1270;22235;-86
2023/04/07 00:54:14;;;;;;;29.60;27.00;;;;;;;0.04;100.00;97736.36;109577;1290;22108;-86
2023/04/07 00:56:43;;;;;;;28.70;26.30;;;;;;;0.03;100.00;97732.55;109587;1290;23026;-87
2023/04/07 00:59:11;;;;;;;28.50;26.00;;;;;;;0.05;100.00;97734.74;109403;1290;22240;-89
2023/04/07 01:01:55;;;;;;;27.50;25.20;;;;;;;0.04;100.00;97731.73;109567;1290;22133;-87
2023/04/07 01:04:26;;;;;;;29.10;26.60;;;;;;;0.02;100.00;97734.84;109571;1290;22031;-87
2023/04/07 01:06:57;;;;;;;30.20;27.60;;;;;;;0.03;100.00;97726.52;109569;1290;22249;-89
2023/04/07 01:09:46;;;;;;;30.90;28.40;;;;;;;0.02;100.00;97726.25;109509;1290;22199;-88
2023/04/07 01:12:19;;;;;;;29.50;26.90;;;;;;;-0.00;100.00;97722.02;109511;1290;22230;-88
2023/04/07 01:14:57;;;;;;;26.90;24.50;;;;;;;0.00;100.00;97726.48;109486;1290;22221;-87
2023/04/07 01:17:39;;;;;;;27.50;25.30;;;;;;;-0.01;100.00;97728.15;109480;1290;22101;-88
2023/04/07 01:20:16;;;;;;;28.10;25.80;;;;;;;0.02;100.00;97721.52;109477;1288;23170;-86
2023/04/07 01:22:50;;;;;;;28.80;26.50;;;;;;;0.06;100.00;97724.61;109588;1290;22196;-88
2023/04/07 01:25:39;;;;;;;27.40;25.20;;;;;;;0.02;100.00;97721.48;109471;1290;22261;-87
2023/04/07 01:28:35;;;;;;;24.70;22.60;;;;;;;-0.00;100.00;97723.55;109501;1290;22275;-88
2023/04/07 01:31:06;;;;;;;29.40;26.80;;;;;;;0.03;100.00;97724.84;109585;1290;22484;-86
2023/04/07 01:33:36;;;;;;;30.20;27.70;;;;;;;0.04;100.00;97724.70;109572;1290;22975;-90
2023/04/07 01:36:06;;;;;;;27.20;24.80;;;;;;;0.04;100.00;97721.52;109565;1290;23017;-90
2023/04/07 01:38:36;;;;;;;25.30;23.30;;;;;;;0.03;100.00;97725.24;109575;1290;22403;-90
2023/04/07 01:41:06;;;;;;;25.10;23.10;;;;;;;0.06;100.00;97724.73;109569;1290;22294;-90
2023/04/07 01:43:36;;;;;;;25.60;23.40;;;;;;;0.09;100.00;97722.67;109567;1290;22207;-90
2023/04/07 01:46:04;;;;;;;28.50;26.10;;;;;;;0.04;100.00;97723.60;109584;1290;22198;-88
2023/04/07 01:48:35;;;;;;;25.90;23.80;;;;;;;0.05;100.00;97725.14;109564;1290;22237;-89
2023/04/07 01:51:05;;;;;;;25.70;23.60;;;;;;;0.04;100.00;97723.16;109436;1290;22231;-91
2023/04/07 01:53:36;;;;;;;23.50;21.40;;;;;;;0.05;100.00;97712.99;109464;1290;22304;-89
2023/04/07 01:56:05;;;;;;;25.50;23.40;;;;;;;0.07;100.00;97714.36;109593;1290;22230;-90
2023/04/07 01:58:34;;;;;;;26.70;24.60;;;;;;;0.11;100.00;97718.58;109485;1290;22199;-91
2023/04/07 02:01:04;;;;;;;26.40;24.30;;;;;;;0.10;100.00;97715.69;109408;1290;22216;-88
2023/04/07 02:03:53;;;;;;;28.00;25.70;;;;;;;0.07;100.00;97710.61;109470;1290;22330;-91
2023/04/07 02:06:28;;;;;;;26.00;23.90;;;;;;;0.08;100.00;97713.52;109541;1290;22283;-89
2023/04/07 02:08:59;;;;;;;;;;;;;;;0.09;100.00;97714.03;109506;1290;22308;-88
2023/04/07 02:11:29;;;;;;;26.00;23.80;;;;;;;0.08;100.00;97713.08;109457;1290;23132;-89
2023/04/07 02:14:01;;;;;;;27.30;25.00;;;;;;;0.08;100.00;97716.39;109496;1290;22182;-88
2023/04/07 02:16:31;;;;;;;27.50;25.10;;;;;;;0.06;100.00;97711.82;109613;1290;22190;-87
2023/04/07 02:19:02;;;;;;;24.90;22.80;;;;;;;0.04;100.00;97708.80;109574;1290;22183;-87
2023/04/07 02:21:33;;;;;;;24.70;22.70;;;;;;;0.05;100.00;97710.58;109585;1290;22152;-89
2023/04/07 02:24:05;;;;;;;28.30;25.80;;;;;;;0.08;100.00;97713.55;109571;1290;22288;-88
2023/04/07 02:26:34;;;;;;;28.60;26.30;;;;;;;0.05;100.00;97709.45;109477;1290;22205;-88
2023/04/07 02:29:03;;;;;;;26.90;24.80;;;;;;;0.02;100.00;97708.38;109477;1290;23456;-87
2023/04/07 02:31:31;;;;;;;27.50;25.10;;;;;;;0.06;100.00;97709.30;109573;1290;22277;-88
2023/04/07 02:34:00;;;;;;;25.90;23.70;;;;;;;0.04;100.00;97709.34;109568;1290;22153;-87
2023/04/07 02:36:30;;;;;;;25.70;23.50;;;;;;;0.07;100.00;97704.39;109473;1290;22107;-87
2023/04/07 02:38:58;;;;;;;26.90;24.70;;;;;;;0.07;100.00;97699.00;109590;1290;22250;-87
2023/04/07 02:41:27;;;;;;;29.50;26.90;;;;;;;0.06;100.00;97695.96;109590;1290;22137;-86
2023/04/07 02:43:55;;;;;;;29.00;26.40;;;;;;;0.05;100.00;97690.05;109621;1290;22202;-88
2023/04/07 02:46:24;;;;;;;28.10;25.70;;;;;;;0.04;100.00;97684.75;109496;1290;22159;-86
2023/04/07 02:48:52;;;;;;;26.30;24.00;;;;;;;0.05;100.00;97679.30;109608;1290;22853;-86
2023/04/07 02:51:20;;;;;;;24.50;22.30;;;;;;;0.06;100.00;97685.58;109463;1290;22119;-87
2023/04/07 02:53:48;;;;;;;25.00;23.00;;;;;;;0.04;100.00;97685.81;109476;1291;22915;-88
2023/04/07 02:56:16;;;;;;;25.20;23.00;;;;;;;0.05;100.00;97688.27;109473;1290;22175;-90
2023/04/07 02:58:44;;;;;;;26.50;24.20;;;;;;;0.06;100.00;97689.80;109501;1280;22212;-89
2023/04/07 03:01:13;;;;;;;27.20;24.80;;;;;;;0.07;100.00;97693.38;109408;1290;22108;-89
2023/04/07 03:03:43;;;;;;;24.90;22.90;;;;;;;0.07;100.00;97695.61;109478;1290;22914;-89
2023/04/07 03:06:15;;;;;;;24.50;22.40;;;;;;;0.03;100.00;97700.15;109474;1290;22230;-90
2023/04/07 03:08:53;;;;;;;23.60;21.60;;;;;;;0.00;100.00;97706.61;109466;1290;22255;-86
2023/04/07 03:11:21;;;;;;;22.90;20.90;;;;;;;0.03;100.00;97703.73;109593;1290;22207;-89
2023/04/07 03:13:49;;;;;;;23.60;21.60;;;;;;;0.05;100.00;97705.36;109454;1290;22297;-88
2023/04/07 03:16:18;;;;;;;23.60;21.60;;;;;;;0.08;100.00;97706.23;109488;1290;22369;-90
2023/04/07 03:18:57;;;;;;;24.40;22.20;;;;;;;0.02;100.00;97700.09;109468;1290;22437;-87
2023/04/07 03:21:27;;;;;;;23.00;21.10;;;;;;;0.05;100.00;97701.83;109485;1290;22876;-87
2023/04/07 03:23:55;;;;;;;25.20;23.30;;;;;;;0.09;100.00;97696.12;109483;1290;22229;-86
2023/04/07 03:26:23;;;;;;;26.50;24.40;;;;;;;0.08;100.00;97693.29;109611;1290;22265;-88
2023/04/07 03:28:51;;;;;;;24.90;22.90;;;;;;;0.09;100.00;97695.33;109638;1290;23097;-89
2023/04/07 03:31:20;;;;;;;25.20;23.20;;;;;;;0.09;100.00;97701.95;109445;1290;22228;-89
2023/04/07 03:33:50;;;;;;;24.60;22.70;;;;;;;0.08;100.00;97700.83;109374;1290;22851;-89
2023/04/07 03:40:06;;;;;;;;;;;;;;;0.05;100.00;97693.77;109506;1290;22199;-88
2023/04/07 03:42:35;;;;;;;28.40;26.10;;;;;;;0.06;100.00;97689.70;109505;1290;23088;-89
2023/04/07 03:45:06;;;;;;;27.60;25.30;;;;;;;0.04;100.00;97690.03;109461;1290;22221;-90
2023/04/07 03:47:35;;;;;;;27.50;25.20;;;;;;;0.01;100.00;97683.20;109482;1290;22903;-91
2023/04/07 03:50:05;;;;;;;25.70;23.50;;;;;;;0.01;100.00;97683.20;109494;1290;22827;-90
2023/04/07 03:52:36;;;;;;;27.40;25.00;;;;;;;0.04;100.00;97683.59;109448;1290;22365;-88
2023/04/07 03:55:11;;;;;;;25.90;23.70;;;;;;;0.05;100.00;97684.23;109495;1290;22167;-90
2023/04/07 03:57:40;;;;;;;27.60;25.20;;;;;;;0.08;100.00;97687.16;109604;1290;22591;-91
2023/04/07 04:00:09;;;;;;;28.50;26.20;;;;;;;0.09;100.00;97680.70;109445;1290;22259;-89
2023/04/07 04:02:46;;;;;;;27.10;24.80;;;;;;;0.08;100.00;97678.35;109498;1290;22221;-88
2023/04/07 04:05:17;;;;;;;26.80;24.60;;;;;;;0.11;100.00;97673.53;109430;1290;22163;-89
2023/04/07 04:07:45;;;;;;;25.70;23.60;;;;;;;0.07;100.00;97679.19;109574;1290;22910;-92
2023/04/07 04:10:15;;;;;;;26.50;24.30;;;;;;;0.05;100.00;97681.38;109479;1290;22205;-84
2023/04/07 04:12:44;;;;;;;26.90;24.60;;;;;;;0.08;100.00;97684.81;109496;1289;22219;-83
2023/04/07 04:15:13;;;;;;;27.10;24.90;;;;;;;0.09;100.00;97686.00;109433;1290;22239;-85
2023/04/07 04:17:42;;;;;;;26.50;24.30;;;;;;;0.04;100.00;97689.20;109436;1290;22222;-84
2023/04/07 04:20:11;;;;;;;28.30;25.90;;;;;;;0.05;100.00;97691.38;109597;1290;22839;-84
2023/04/07 04:22:45;;;;;;;25.70;23.40;;;;;;;0.04;100.00;97696.67;109447;1290;22041;-83
2023/04/07 04:25:15;;;;;;;26.50;24.30;;;;;;;0.04;100.00;97697.24;109504;1290;22883;-84
2023/04/07 04:27:52;;;;;;;25.60;23.30;;;;;;;0.06;100.00;97696.54;109404;1290;22831;-86
2023/04/07 04:30:22;;;;;;;24.90;22.90;;;;;;;0.08;100.00;97694.36;109492;1290;22238;-83
2023/04/07 04:33:00;;;;;;;24.70;22.60;;;;;;;0.10;100.00;97699.76;109427;1290;22125;-84
2023/04/07 04:35:34;;;;;;;28.60;26.30;;;;;;;0.11;100.00;97700.14;109480;1290;22923;-82
2023/04/07 04:38:07;;;;;;;30.40;27.90;;;;;;;0.10;100.00;97706.54;109434;1290;22821;-82
2023/04/07 04:40:35;;;;;;;27.90;25.50;;;;;;;0.08;100.00;97705.17;109480;1290;22472;-82
2023/04/07 04:43:08;;;;;;;27.00;24.70;;;;;;;0.11;100.00;97708.25;109445;1290;23066;-81
2023/04/07 04:45:37;;;;;;;27.40;25.00;;;;;;;0.13;100.00;97711.48;109473;1290;22906;-81
2023/04/07 04:48:06;;;;;;;29.40;26.90;;;;;;;0.13;100.00;97710.20;109459;1290;22241;-82
2023/04/07 04:50:35;;;;;;;30.90;28.40;;;;;;;0.13;100.00;97708.83;109581;1290;22207;-82
2023/04/07 04:53:06;;;;;;;29.40;27.00;;;;;;;0.13;100.00;97706.41;109378;1290;22243;-82
2023/04/07 04:55:34;;;;;;;28.20;25.80;;;;;;;0.10;100.00;97705.63;109419;1290;22208;-82
2023/04/07 04:58:04;;;;;;;31.80;29.00;;;;;;;0.09;100.00;97710.20;109267;1290;22180;-82
2023/04/07 05:00:40;;;;;;;31.40;28.60;;;;;;;0.10;100.00;97720.84;109408;1290;22978;-81
2023/04/07 05:03:08;;;;;;;28.90;26.40;;;;;;;0.12;100.00;97726.61;109492;1285;22735;-82
2023/04/07 05:05:38;;;;;;;27.50;25.10;;;;;;;0.16;100.00;97727.64;109586;1285;22255;-81
2023/04/07 05:08:09;;;;;;;29.50;27.10;;;;;;;0.16;100.00;97726.52;109286;1290;22142;-81
2023/04/07 05:10:39;;;;;;;28.70;26.30;;;;;;;0.15;100.00;97725.45;109284;1290;22207;-81
2023/04/07 05:13:10;;;;;;;28.80;26.30;;;;;;;0.17;100.00;97728.82;109575;1290;22143;-83
2023/04/07 05:15:42;;;;;;;26.50;24.20;;;;;;;0.20;100.00;97723.46;109437;1290;22856;-83
2023/04/07 05:18:11;;;;;;;27.20;24.60;;;;;;;0.23;100.00;97724.05;109479;1289;22422;-82
2023/04/07 05:20:43;;;;;;;30.60;28.00;;;;;;;0.24;100.00;97721.10;109465;1290;22255;-81
2023/04/07 05:23:12;;;;;;;28.50;25.80;;;;;;;0.22;100.00;97720.00;109477;1290;22244;-82
2023/04/07 05:25:40;;;;;;;25.90;23.70;;;;;;;0.24;100.00;97722.42;109402;1290;22245;-82
2023/04/07 05:28:08;;;;;;;29.00;26.30;;;;;;;0.26;100.00;97718.95;109476;1290;22150;-82
2023/04/07 05:30:37;;;;;;;28.80;26.30;;;;;;;0.25;100.00;97714.76;109270;1290;22377;-83
2023/04/07 05:33:05;;;;;;;29.40;26.70;;;;;;;0.28;100.00;97713.77;109398;1290;22227;-83
2023/04/07 05:35:44;;;;;;;31.20;28.70;;;;;;;0.25;100.00;97696.90;109461;1290;22183;-83
2023/04/07 05:38:13;;;;;;;29.10;26.50;;;;;;;0.22;100.00;97701.88;109354;1290;22985;-85
2023/04/07 05:40:41;;;;;;;27.70;25.20;;;;;;;0.20;100.00;97706.77;109481;1290;22274;-86
2023/04/07 05:43:11;;;;;;;27.00;24.50;;;;;;;0.25;100.00;97712.69;109731;1290;22250;-88
2023/04/07 05:45:39;;;;;;;27.20;24.80;;;;;;;0.43;100.00;97712.17;109651;1267;22206;-90
2023/04/07 05:48:08;;;;;;;29.10;26.60;;;;;;;0.62;100.00;97711.18;109800;1289;22231;-83
2023/04/07 05:50:43;;;;;;;28.80;26.20;;;;;;;0.87;100.00;97711.71;109609;1289;22840;-87
2023/04/07 05:53:15;;;;;;;26.60;24.20;;;;;;;0.73;100.00;97711.33;109631;1289;22383;-89
2023/04/07 05:55:43;;;;;;;29.20;26.70;;;;;;;0.60;100.00;97713.71;109561;1289;22410;-87
2023/04/07 05:58:21;;;;;;;28.90;26.30;;;;;;;0.54;100.00;97715.40;109560;1289;22222;-88
2023/04/07 06:00:55;;;;;;;28.90;26.40;;;;;;;0.53;100.00;97721.95;109551;1289;22188;-91
2023/04/07 06:03:24;;;;;;;31.10;28.40;;;;;;;0.50;100.00;97725.77;109683;1289;23001;-85
2023/04/07 06:06:03;;;;;;;27.70;25.40;;;;;;;0.50;100.00;97727.52;109644;1289;22266;-87
2023/04/07 06:08:31;;;;;;;28.80;26.30;;;;;;;0.45;100.00;97722.77;109683;1289;22392;-93
2023/04/07 06:11:00;;;;;;;26.50;24.10;;;;;;;0.45;100.00;97727.70;109687;1289;23056;-84
2023/04/07 06:13:28;;;;;;;27.00;24.40;;;;;;;0.49;100.00;97725.96;109564;1289;22281;-79
2023/04/07 06:15:56;;;;;;;28.10;25.70;;;;;;;0.49;100.00;97725.23;109588;1289;22777;-80
2023/04/07 06:18:24;;;;;;;27.90;25.30;;;;;;;0.51;100.00;97725.73;109690;1289;23343;-81
2023/04/07 06:20:52;;;;;;;31.40;28.50;;;;;;;0.48;100.00;97730.66;109674;1277;22218;-86
2023/04/07 06:23:20;;;;;;;31.80;28.20;;;;;;;0.51;100.00;97731.52;109674;1289;22124;-83
2023/04/07 06:25:51;;;;;;;32.90;29.40;;;;;;;0.56;100.00;97734.57;109695;1287;22248;-84
2023/04/07 06:28:20;;;;;;;28.20;25.60;;;;;;;0.59;100.00;97737.16;109809;1289;22170;-82
2023/04/07 06:30:48;;;;;;;28.40;26.00;;;;;;;0.59;100.00;97731.33;109645;1289;22944;-83
2023/04/07 06:33:16;;;;;;;25.20;23.00;;;;;;;0.58;100.00;97726.27;109614;1289;22832;-84
2023/04/07 06:35:44;;;;;;;32.30;29.00;;;;;;;0.56;100.00;97718.25;109689;1289;23033;-84
2023/04/07 06:38:12;;;;;;;26.70;24.30;;;;;;;0.59;100.00;97714.95;109687;1289;22330;-84
2023/04/07 06:40:40;;;;;;;29.40;26.90;;;;;;;0.52;100.00;97713.62;109681;1289;22194;-84
2023/04/07 06:43:08;;;;;;;26.70;24.20;;;;;;;0.49;100.00;97711.27;109678;1289;22196;-85
2023/04/07 06:45:56;;;;;;;25.00;22.80;;;;;;;0.49;100.00;97713.39;109654;1289;22932;-84
2023/04/07 06:48:25;;;;;;;26.50;24.20;;;;;;;0.51;100.00;97710.37;109694;1289;22126;-86
2023/04/07 06:50:53;;;;;;;23.00;21.00;;;;;;;0.53;100.00;97708.69;109690;1289;22215;-87
2023/04/07 06:53:21;;;;;;;25.60;23.40;;;;;;;0.53;100.00;97706.52;109571;1289;22306;-86
2023/04/07 06:55:49;;;;;;;24.80;22.70;;;;;;;0.43;100.00;97708.00;109730;1289;22249;-86
2023/04/07 06:58:17;;;;;;;25.90;23.70;;;;;;;0.48;100.00;97707.49;109739;1289;22242;-85
2023/04/07 07:00:45;;;;;;;26.60;24.40;;;;;;;0.47;100.00;97714.46;109826;1289;22198;-87
2023/04/07 07:03:13;;;;;;;25.90;23.60;;;;;;;0.46;100.00;97711.17;109853;1289;22119;-85
2023/04/07 07:05:41;;;;;;;27.90;25.60;;;;;;;0.52;100.00;97712.59;109756;1289;22098;-83
2023/04/07 07:08:09;;;;;;;28.60;26.00;;;;;;;0.51;100.00;97713.31;109880;1284;22126;-85
2023/04/07 07:10:37;;;;;;;26.50;24.10;;;;;;;0.50;100.00;97717.45;109789;1289;22217;-83
2023/04/07 07:13:05;;;;;;;24.00;22.00;;;;;;;0.53;100.00;97723.75;109562;1289;22168;-82
2023/04/07 07:15:33;;;;;;;26.90;24.50;;;;;;;0.54;100.00;97739.09;109676;1289;22272;-83
2023/04/07 07:18:01;;;;;;;26.80;24.30;;;;;;;0.63;100.00;97748.05;109664;1289;22243;-83
2023/04/07 07:20:29;;;;;;;31.40;28.50;;;;;;;0.63;100.00;97739.22;109663;1289;23045;-84
2023/04/07 07:22:58;;;;;;;29.70;27.00;;;;;;;0.59;100.00;97719.40;109699;1289;22868;-82
2023/04/07 07:25:26;;;;;;;29.00;26.20;;;;;;;0.56;100.00;97705.05;109685;1289;22125;-84
2023/04/07 07:27:54;;;;;;;28.00;25.20;;;;;;;0.56;100.00;97708.91;109697;1289;22260;-85
2023/04/07 07:30:23;;;;;;;27.20;24.70;;;;;;;0.54;100.00;97716.34;109691;1287;22429;-86
2023/04/07 07:32:52;;;;;;;26.50;24.20;;;;;;;0.54;100.00;97711.09;109672;1289;22571;-86
2023/04/07 07:35:21;;;;;;;50.90;46.00;;;;;;;0.58;100.00;97690.56;109667;1289;22213;-84
2023/04/07 07:37:49;;;;;;;32.70;29.70;;;;;;;0.56;100.00;97691.73;109573;1289;23044;-83
2023/04/07 07:40:17;;;;;;;27.30;25.00;;;;;;;0.61;100.00;97712.28;109694;1289;22247;-85
2023/04/07 07:42:46;;;;;;;26.00;23.70;;;;;;;0.64;100.00;97722.35;109686;1289;22763;-84
2023/04/07 07:45:14;;;;;;;27.30;24.90;;;;;;;0.67;100.00;97722.73;109673;1289;22227;-89
2023/04/07 07:47:42;;;;;;;28.90;26.40;;;;;;;0.67;100.00;97731.59;109720;1289;22389;-89
2023/04/07 07:50:10;;;;;;;31.70;28.90;;;;;;;0.68;100.00;97741.85;109558;1289;22182;-87
2023/04/07 07:52:38;;;;;;;29.50;26.90;;;;;;;0.64;100.00;97735.51;109705;1289;22209;-87
2023/04/07 07:55:07;;;;;;;31.00;28.20;;;;;;;0.64;100.00;97725.58;109607;1289;22183;-84
2023/04/07 07:57:35;;;;;;;29.60;26.90;;;;;;;0.65;100.00;97720.16;109578;1289;22529;-84
2023/04/07 08:00:03;;;;;;;28.80;26.30;;;;;;;0.71;100.00;97724.98;109701;1289;22345;-84
2023/04/07 08:02:40;;;;;;;30.20;27.60;;;;;;;0.65;100.00;97731.30;109812;1289;22187;-85
2023/04/07 08:05:08;;;;;;;28.40;25.80;;;;;;;0.66;100.00;97737.56;109767;1289;22198;-84
2023/04/07 08:07:36;;;;;;;30.50;28.00;;;;;;;0.67;100.00;97742.41;109836;1289;22160;-85
2023/04/07 08:10:05;;;;;;;31.30;28.60;;;;;;;0.66;100.00;97737.56;109800;1289;22144;-85
2023/04/07 08:13:04;;;;;;;34.00;31.00;;;;;;;0.72;100.00;97735.39;109701;1289;22129;-82
2023/04/07 08:15:32;;;;;;;35.50;32.30;;;;;;;0.71;100.00;97732.73;109714;1289;22208;-84
2023/04/07 08:18:03;;;;;;;32.90;29.90;;;;;;;0.72;100.00;97734.27;109697;1289;23008;-87
2023/04/07 08:20:31;;;;;;;31.20;28.50;;;;;;;0.74;100.00;97728.16;109432;1289;22257;-87
2023/04/07 08:23:01;;;;;;;32.80;29.60;;;;;;;0.80;100.00;97721.20;109597;1289;22142;-87
2023/04/07 08:25:29;;;;;;;31.30;28.60;;;;;;;0.79;100.00;97721.11;109692;1289;22189;-88
2023/04/07 08:27:57;;;;;;;31.20;28.50;;;;;;;0.78;100.00;97724.45;109677;1289;23116;-87
2023/04/07 08:30:25;;;;;;;32.70;29.80;;;;;;;0.78;100.00;97728.59;109678;1289;22983;-89
2023/04/07 08:32:53;;;;;;;32.70;29.90;;;;;;;0.74;100.00;97733.83;109707;1289;22207;-85
2023/04/07 08:35:22;;;;;;;34.40;31.20;;;;;;;0.71;100.00;97735.37;109685;1289;22130;-86
2023/04/07 08:37:53;;;;;;;33.00;29.80;;;;;;;0.71;100.00;97730.90;109698;1289;22131;-85
2023/04/07 08:40:21;;;;;;;31.60;28.80;;;;;;;0.71;100.00;97731.98;109686;1289;22183;-86
2023/04/07 08:42:51;;;;;;;31.40;28.60;;;;;;;0.70;100.00;97732.33;109689;1289;22231;-87
2023/04/07 08:45:20;;;;;;;32.10;29.30;;;;;;;0.70;100.00;97729.92;109513;1289;22881;-88
2023/04/07 08:47:52;;;;;;;35.20;32.20;;;;;;;0.72;100.00;97726.38;109705;1289;22669;-87
2023/04/07 08:50:23;;;;;;;38.40;34.90;;;;;;;0.74;100.00;97724.83;109669;1289;22906;-87
2023/04/07 08:52:56;;;;;;;38.70;35.30;;;;;;;0.73;100.00;97726.27;109688;1289;22208;-88
2023/04/07 08:55:25;;;;;;;32.80;29.80;;;;;;;0.77;100.00;97731.13;109692;1289;22237;-87
2023/04/07 08:57:53;;;;;;;34.80;31.70;;;;;;;0.82;100.00;97730.63;109686;1285;22254;-86
2023/04/07 09:00:21;;;;;;;34.60;31.50;;;;;;;0.89;100.00;97729.20;109700;1289;22959;-84
2023/04/07 09:02:50;;;;;;;36.00;32.60;;;;;;;0.87;100.00;97723.80;109704;1289;22212;-84
2023/04/07 09:05:20;;;;;;;35.20;31.80;;;;;;;0.86;100.00;97721.46;109665;1289;22915;-85
2023/04/07 09:07:48;;;;;;;33.40;30.30;;;;;;;0.92;100.00;97720.69;109696;1289;22106;-84
2023/04/07 09:10:16;;;;;;;39.20;35.60;;;;;;;0.91;100.00;97719.20;109651;1289;22926;-83
2023/04/07 09:12:44;;;;;;;39.60;35.90;;;;;;;0.88;100.00;97723.02;109687;1289;22232;-84
2023/04/07 09:15:13;;;;;;;37.20;33.80;;;;;;;0.86;100.00;97721.15;109680;1289;22239;-86
2023/04/07 09:17:41;;;;;;;36.20;32.90;;;;;;;0.82;100.00;97721.11;109503;1289;22360;-85
2023/04/07 09:20:10;;;;;;;38.60;35.10;;;;;;;0.82;100.00;97715.13;109705;1289;22225;-85
2023/04/07 09:22:39;;;;;;;39.60;36.10;;;;;;;0.86;100.00;97713.61;109660;1289;22352;-83
2023/04/07 09:25:17;;;;;;;40.90;37.10;;;;;;;0.88;100.00;97716.71;109554;1289;22829;-85
2023/04/07 09:27:58;;;;;;;37.70;34.20;;;;;;;0.85;100.00;97719.91;109675;1289;22135;-83
2023/04/07 09:30:28;;;;;;;39.60;35.90;;;;;;;0.86;100.00;97720.83;109688;1289;22149;-86
2023/04/07 09:32:57;;;;;;;36.90;33.70;;;;;;;0.93;100.00;97730.21;109714;1289;22164;-85
2023/04/07 09:35:27;;;;;;;38.50;35.00;;;;;;;1.00;100.00;97738.86;109499;1289;22325;-85
2023/04/07 09:38:02;;;;;;;42.30;38.60;;;;;;;0.98;100.00;97737.36;109526;1289;22143;-85
2023/04/07 09:40:30;;;;;;;52.60;47.40;;;;;;;1.01;100.00;97736.40;109695;1289;22281;-85
2023/04/07 09:42:58;;;;;;;46.90;42.40;;;;;;;1.05;100.00;97734.17;109705;1289;22287;-85
2023/04/07 09:45:28;;;;;;;49.50;44.70;;;;;;;1.13;100.00;97738.77;109512;1289;22694;-84
2023/04/07 09:47:59;;;;;;;47.70;43.00;;;;;;;1.20;100.00;97736.70;109689;1289;22384;-84
2023/04/07 09:50:48;;;;;;;40.50;36.90;;;;;;;1.28;100.00;97731.98;109682;1289;22287;-84
2023/04/07 09:53:17;;;;;;;42.40;38.40;;;;;;;1.27;100.00;97735.30;109704;1289;22685;-84
2023/04/07 09:55:46;;;;;;;35.00;31.80;;;;;;;1.23;100.00;97729.52;109669;1289;22146;-83
2023/04/07 09:58:15;;;;;;;38.00;34.30;;;;;;;1.22;100.00;97726.04;109669;1289;22206;-83
2023/04/07 10:00:44;;;;;;;40.50;36.80;;;;;;;1.20;100.00;97729.05;109667;1289;22961;-83
2023/04/07 10:03:13;;;;;;;35.90;32.80;;;;;;;1.27;100.00;97729.16;109664;1289;22274;-81
2023/04/07 10:05:43;;;;;;;38.00;34.60;;;;;;;1.32;100.00;97740.65;109653;1289;22252;-80
2023/04/07 10:08:11;;;;;;;33.50;30.50;;;;;;;1.31;100.00;97750.92;109672;1289;22238;-86
2023/04/07 10:10:41;;;;;;;31.10;28.30;;;;;;;1.31;100.00;97746.20;109653;1289;22235;-85
2023/04/07 10:13:11;;;;;;;31.60;28.90;;;;;;;1.32;100.00;97739.17;109676;1289;22213;-83
2023/04/07 10:15:39;;;;;;;36.50;33.30;;;;;;;1.33;100.00;97735.40;109682;1289;23099;-88
2023/04/07 10:18:08;;;;;;;39.00;35.50;;;;;;;1.31;100.00;97728.54;109671;1289;22242;-84
2023/04/07 10:20:40;;;;;;;38.90;35.30;;;;;;;1.29;100.00;97718.15;109683;1289;22299;-83
2023/04/07 10:23:53;;;;;;;35.20;32.00;;;;;;;1.29;100.00;97709.92;109696;1289;23025;-84
2023/04/07 10:26:26;;;;;;;43.80;39.40;;;;;;;1.29;100.00;97712.30;109689;1289;22255;-85
2023/04/07 10:29:01;;;;;;;36.50;33.20;;;;;;;1.29;100.00;97714.84;109668;1289;22312;-85
2023/04/07 10:31:30;;;;;;;37.70;34.20;;;;;;;1.29;100.00;97718.30;109668;1289;22258;-85
2023/04/07 10:34:00;;;;;;;35.70;32.50;;;;;;;1.31;100.00;97717.02;109675;1289;22272;-82
2023/04/07 10:36:28;;;;;;;38.80;35.20;;;;;;;1.32;100.00;97712.36;109777;1289;22265;-89
2023/04/07 10:39:08;;;;;;;35.30;32.10;;;;;;;1.33;100.00;97712.94;109778;1289;22209;-85
2023/04/07 10:41:37;;;;;;;34.90;31.60;;;;;;;1.31;100.00;97714.10;109679;1289;22248;-89
2023/04/07 10:44:07;;;;;;;34.50;31.10;;;;;;;1.31;100.00;97717.08;109643;1289;22950;-84
2023/04/07 10:46:44;;;;;;;33.50;30.40;;;;;;;1.36;100.00;97717.52;109498;1289;23031;-84
2023/04/07 10:49:13;;;;;;;37.40;34.20;;;;;;;1.42;100.00;97709.36;109664;1289;22219;-85
2023/04/07 10:52:10;;;;;;;34.10;31.00;;;;;;;1.43;100.00;97708.15;109685;1289;22097;-83
2023/04/07 10:54:39;;;;;;;35.50;32.40;;;;;;;1.44;100.00;97703.43;109659;1289;22094;-83
2023/04/07 10:57:09;;;;;;;39.50;36.00;;;;;;;1.51;100.00;97704.42;109671;1289;22317;-83
2023/04/07 10:59:58;;;;;;;35.80;32.60;;;;;;;1.54;100.00;97705.52;109671;1289;22302;-83
2023/04/07 11:02:26;;;;;;;38.50;35.20;;;;;;;1.58;100.00;97704.38;109665;1289;22299;-84
2023/04/07 11:04:55;;;;;;;39.90;36.30;;;;;;;1.59;100.00;97702.25;109671;1289;22112;-84
2023/04/07 11:07:43;;;;;;;39.00;35.60;;;;;;;1.61;100.00;97698.63;109667;1289;22295;-83
2023/04/07 11:10:12;;;;;;;35.50;32.40;;;;;;;1.61;100.00;97703.88;109661;1289;22271;-83
2023/04/07 11:12:40;;;;;;;37.10;33.70;;;;;;;1.64;100.00;97700.27;109205;1289;22257;-83
2023/04/07 11:15:18;;;;;;;37.00;33.60;;;;;;;1.64;100.00;97699.50;109643;1285;22263;-83
2023/04/07 11:18:06;;;;;;;37.10;33.90;;;;;;;1.68;100.00;97702.22;109489;1289;22209;-82
2023/04/07 11:20:42;;;;;;;36.30;33.10;;;;;;;1.67;100.00;97699.17;109696;1289;23007;-85
2023/04/07 11:23:15;;;;;;;35.40;32.40;;;;;;;1.68;100.00;97704.46;109701;1289;22284;-84
2023/04/07 11:25:47;;;;;;;36.00;32.90;;;;;;;1.69;100.00;97716.00;109511;1289;22150;-84
2023/04/07 11:28:16;;;;;;;30.40;27.70;;;;;;;1.70;100.00;97714.79;109519;1289;22144;-83
2023/04/07 11:30:50;;;;;;;31.80;29.00;;;;;;;1.69;100.00;97715.05;109538;1289;22236;-83